createdAt,value
2022-11-16T00:02:14.798Z,99842.94
2022-11-16T00:04:42.183Z,99838.03
2022-11-16T00:07:09.330Z,99837.88
2022-11-16T00:09:36.680Z,99846.75
2022-11-16T00:12:06.274Z,99836.66
2022-11-16T00:14:35.190Z,99832.47
2022-11-16T00:17:02.877Z,99835.44
2022-11-16T00:19:30.026Z,99839.31
2022-11-16T00:21:56.922Z,99837.84
2022-11-16T00:24:24.069Z,99833.72
2022-11-16T00:26:53.782Z,99831.19
2022-11-16T00:29:24.084Z,99829.00
2022-11-16T00:31:51.295Z,99840.44
2022-11-16T00:34:18.591Z,99835.00
2022-11-16T00:36:46.233Z,99836.66
2022-11-16T00:39:14.559Z,99831.28
2022-11-16T00:41:42.151Z,99822.94
2022-11-16T00:44:09.270Z,99829.19
2022-11-16T00:46:35.906Z,99832.53
2022-11-16T00:49:03.072Z,99833.78
2022-11-16T00:51:29.755Z,99828.53
2022-11-16T00:53:56.406Z,99831.88
2022-11-16T00:56:23.599Z,99829.19
2022-11-16T00:58:50.519Z,99824.81
2022-11-16T01:01:17.452Z,99821.03
2022-11-16T01:03:44.210Z,99811.47
2022-11-16T01:06:14.287Z,99817.69
2022-11-16T01:08:42.634Z,99816.25
2022-11-16T01:11:31.025Z,99798.06
2022-11-16T01:13:57.617Z,99800.44
2022-11-16T01:16:24.471Z,99793.78
2022-11-16T01:18:53.425Z,99802.53
2022-11-16T01:21:20.547Z,99782.72
2022-11-16T01:23:47.340Z,99791.19
2022-11-16T01:26:14.116Z,99799.19
2022-11-16T01:28:40.764Z,99799.38
2022-11-16T01:31:08.936Z,99794.38
2022-11-16T01:33:36.126Z,99797.25
2022-11-16T01:36:02.783Z,99795.00
2022-11-16T01:38:30.120Z,99796.25
2022-11-16T01:40:57.099Z,99786.66
2022-11-16T01:43:27.154Z,99778.25
2022-11-16T01:45:54.142Z,99775.53
2022-11-16T01:48:27.864Z,99768.22
2022-11-16T01:50:57.448Z,99766.97
2022-11-16T01:53:25.016Z,99760.34
2022-11-16T01:55:52.522Z,99764.47
2022-11-16T01:58:23.207Z,99764.66
2022-11-16T02:00:50.260Z,99762.00
2022-11-16T02:03:20.704Z,99761.13
2022-11-16T02:05:56.309Z,99769.66
2022-11-16T02:08:53.702Z,99774.03
2022-11-16T02:11:58.275Z,99779.88
2022-11-16T02:14:34.565Z,99770.50
2022-11-16T02:17:14.416Z,99771.34
2022-11-16T02:19:44.032Z,99770.28
2022-11-16T02:22:23.157Z,99766.34
2022-11-16T02:25:16.648Z,99770.06
2022-11-16T02:28:19.489Z,99755.72
2022-11-16T02:30:50.613Z,99761.94
2022-11-16T02:33:21.387Z,99741.84
2022-11-16T02:35:49.900Z,99736.81
2022-11-16T02:38:22.831Z,99731.56
2022-11-16T02:40:53.787Z,99728.47
2022-11-16T02:43:30.159Z,99737.88
2022-11-16T02:46:01.661Z,99739.56
2022-11-16T02:48:35.756Z,99737.88
2022-11-16T02:51:03.319Z,99735.75
2022-11-16T02:53:37.116Z,99732.63
2022-11-16T02:56:03.704Z,99726.78
2022-11-16T02:58:30.701Z,99728.69
2022-11-16T03:01:06.415Z,99717.44
2022-11-16T03:03:43.688Z,99722.66
2022-11-16T03:06:18.169Z,99724.78
2022-11-16T03:09:07.295Z,99720.97
2022-11-16T03:11:55.681Z,99725.84
2022-11-16T03:14:27.275Z,99722.50
2022-11-16T03:16:57.604Z,99720.19
2022-11-16T03:19:33.588Z,99717.47
2022-11-16T03:22:04.875Z,99720.00
2022-11-16T03:24:31.956Z,99715.47
2022-11-16T03:27:05.665Z,99708.38
2022-11-16T03:30:04.262Z,99701.63
2022-11-16T03:32:41.927Z,99698.69
2022-11-16T03:35:17.290Z,99692.28
2022-11-16T03:37:47.477Z,99693.53
2022-11-16T03:40:14.476Z,99688.72
2022-11-16T03:42:43.735Z,99695.78
2022-11-16T03:45:12.438Z,99693.13
2022-11-16T03:47:41.154Z,99695.84
2022-11-16T03:50:08.717Z,99684.56
2022-11-16T03:52:35.718Z,99671.16
2022-11-16T03:55:02.311Z,99692.66
2022-11-16T03:57:28.994Z,99686.22
2022-11-16T03:59:55.652Z,99687.03
2022-11-16T04:02:22.249Z,99691.84
2022-11-16T04:05:08.216Z,99693.09
2022-11-16T04:07:53.755Z,99685.38
2022-11-16T04:10:38.718Z,99688.91
2022-11-16T04:13:24.365Z,99681.63
2022-11-16T04:16:09.901Z,99687.28
2022-11-16T04:18:55.075Z,99683.31
2022-11-16T04:21:49.327Z,99692.31
2022-11-16T04:24:26.156Z,99684.56
2022-11-16T04:27:19.681Z,99675.59
2022-11-16T04:29:46.914Z,99676.22
2022-11-16T04:32:32.296Z,99671.66
2022-11-16T04:35:17.942Z,99682.09
2022-11-16T04:37:50.354Z,99672.28
2022-11-16T04:40:18.033Z,99678.53
2022-11-16T04:42:51.152Z,99680.63
2022-11-16T04:45:36.805Z,99673.34
2022-11-16T04:48:04.043Z,99668.13
2022-11-16T04:50:30.729Z,99674.59
2022-11-16T04:52:57.392Z,99670.22
2022-11-16T04:55:24.048Z,99683.75
2022-11-16T04:57:50.861Z,99686.47
2022-11-16T05:00:18.117Z,99680.03
2022-11-16T05:02:44.951Z,99680.41
2022-11-16T05:05:12.301Z,99673.34
2022-11-16T05:07:39.016Z,99667.97
2022-11-16T05:10:06.903Z,99673.34
2022-11-16T05:12:34.230Z,99677.72
2022-11-16T05:15:01.311Z,99668.34
2022-11-16T05:17:28.523Z,99666.06
2022-11-16T05:20:13.780Z,99669.38
2022-11-16T05:22:40.379Z,99665.84
2022-11-16T05:25:08.852Z,99671.91
2022-11-16T05:27:36.299Z,99668.13
2022-11-16T05:30:05.040Z,99668.75
2022-11-16T05:32:31.913Z,99674.41
2022-11-16T05:34:58.475Z,99671.94
2022-11-16T05:37:26.842Z,99672.09
2022-11-16T05:39:57.114Z,99670.06
2022-11-16T05:42:23.783Z,99674.81
2022-11-16T05:44:50.359Z,99670.88
2022-11-16T05:47:17.206Z,99665.88
2022-11-16T05:49:43.795Z,99662.97
2022-11-16T05:52:10.355Z,99667.13
2022-11-16T05:54:36.871Z,99669.41
2022-11-16T05:57:03.425Z,99667.13
2022-11-16T05:59:30.219Z,99661.69
2022-11-16T06:01:57.925Z,99661.69
2022-11-16T06:04:24.979Z,99667.75
2022-11-16T06:06:52.280Z,99670.47
2022-11-16T06:09:18.956Z,99670.47
2022-11-16T06:11:45.783Z,99675.75
2022-11-16T06:14:12.444Z,99683.63
2022-11-16T06:16:39.044Z,99685.47
2022-11-16T06:19:05.645Z,99691.94
2022-11-16T06:21:33.074Z,99681.31
2022-11-16T06:24:00.106Z,99679.25
2022-11-16T06:26:26.698Z,99676.53
2022-11-16T06:28:54.987Z,99662.31
2022-11-16T06:31:21.946Z,99676.50
2022-11-16T06:33:48.542Z,99674.63
2022-11-16T06:36:15.113Z,99660.59
2022-11-16T06:38:41.752Z,99669.59
2022-11-16T06:41:08.360Z,99672.94
2022-11-16T06:43:34.975Z,99679.59
2022-11-16T06:46:01.628Z,99673.38
2022-11-16T06:48:28.193Z,99672.31
2022-11-16T06:50:54.812Z,99671.47
2022-11-16T06:53:27.590Z,99677.13
2022-11-16T06:55:55.774Z,99674.22
2022-11-16T06:58:22.487Z,99674.00
2022-11-16T07:00:49.208Z,99676.13
2022-11-16T07:03:15.917Z,99676.56
2022-11-16T07:05:42.543Z,99671.53
2022-11-16T07:08:09.583Z,99663.81
2022-11-16T07:10:38.004Z,99671.31
2022-11-16T07:13:05.257Z,99669.28
2022-11-16T07:15:32.658Z,99664.66
2022-11-16T07:18:06.709Z,99670.13
2022-11-16T07:20:34.016Z,99670.75
2022-11-16T07:23:03.995Z,99669.47
2022-11-16T07:25:32.438Z,99661.34
2022-11-16T07:27:59.052Z,99666.78
2022-11-16T07:30:26.607Z,99665.50
2022-11-16T07:32:57.921Z,99664.69
2022-11-16T07:35:24.630Z,99654.53
2022-11-16T07:37:51.136Z,99664.50
2022-11-16T07:40:17.666Z,99657.41
2022-11-16T07:42:45.489Z,99660.94
2022-11-16T07:45:12.270Z,99656.81
2022-11-16T07:47:38.837Z,99659.31
2022-11-16T07:50:06.552Z,99658.88
2022-11-16T07:52:33.104Z,99660.09
2022-11-16T07:55:01.418Z,99648.84
2022-11-16T07:57:28.028Z,99653.44
2022-11-16T07:59:54.544Z,99650.94
2022-11-16T08:02:21.237Z,99650.34
2022-11-16T08:04:47.768Z,99649.34
2022-11-16T08:07:14.754Z,99647.84
2022-11-16T08:09:41.435Z,99654.50
2022-11-16T08:12:08.028Z,99645.53
2022-11-16T08:14:34.560Z,99644.69
2022-11-16T08:17:01.139Z,99654.09
2022-11-16T08:19:27.625Z,99641.38
2022-11-16T08:21:54.193Z,99640.13
2022-11-16T08:24:20.943Z,99650.13
2022-11-16T08:26:47.557Z,99658.47
2022-11-16T08:29:15.270Z,99652.22
2022-11-16T08:31:44.676Z,99652.22
2022-11-16T08:34:11.560Z,99647.84
2022-11-16T08:36:38.070Z,99635.53
2022-11-16T08:39:04.755Z,99642.00
2022-11-16T08:41:31.325Z,99640.72
2022-11-16T08:43:59.412Z,99645.13
2022-11-16T08:46:26.209Z,99653.25
2022-11-16T08:48:56.432Z,99644.28
2022-11-16T08:51:23.492Z,99671.59
2022-11-16T08:53:55.765Z,99654.91
2022-11-16T08:56:22.779Z,99656.75
2022-11-16T08:58:53.817Z,99652.63
2022-11-16T09:01:25.562Z,99644.50
2022-11-16T09:03:52.763Z,99657.00
2022-11-16T09:06:19.886Z,99662.41
2022-11-16T09:08:47.077Z,99658.06
2022-11-16T09:11:17.082Z,99644.31
2022-11-16T09:13:45.642Z,99653.06
2022-11-16T09:16:12.425Z,99651.81
2022-11-16T09:18:39.020Z,99668.91
2022-11-16T09:21:05.647Z,99655.53
2022-11-16T09:23:32.173Z,99641.13
2022-11-16T09:26:02.419Z,99650.13
2022-11-16T09:28:29.373Z,99639.91
2022-11-16T09:31:00.455Z,99655.13
2022-11-16T09:33:29.152Z,99639.09
2022-11-16T09:35:55.854Z,99645.31
2022-11-16T09:38:34.846Z,99644.28
2022-11-16T09:41:22.081Z,99632.19
2022-11-16T09:44:12.596Z,99638.66
2022-11-16T09:46:48.069Z,99626.59
2022-11-16T09:49:26.062Z,99636.41
2022-11-16T09:52:00.226Z,99629.75
2022-11-16T09:54:31.699Z,99623.72
2022-11-16T09:57:02.075Z,99635.59
2022-11-16T09:59:37.106Z,99637.28
2022-11-16T10:02:22.637Z,99614.97
2022-11-16T10:04:58.672Z,99613.50
2022-11-16T10:07:41.846Z,99611.81
2022-11-16T10:10:24.388Z,99612.88
2022-11-16T10:13:14.648Z,99603.47
2022-11-16T10:15:56.191Z,99606.41
2022-11-16T10:18:41.369Z,99614.75
2022-11-16T10:21:19.207Z,99591.81
2022-11-16T10:24:03.802Z,99609.75
2022-11-16T10:26:45.285Z,99599.31
2022-11-16T10:29:31.366Z,99598.06
2022-11-16T10:32:07.723Z,99581.97
2022-11-16T10:34:53.278Z,99596.78
2022-11-16T10:37:21.397Z,99590.13
2022-11-16T10:39:53.348Z,99589.50
2022-11-16T10:42:42.238Z,99582.19
2022-11-16T10:45:23.962Z,99594.72
2022-11-16T10:48:17.791Z,99586.38
2022-11-16T10:50:47.830Z,99584.06
2022-11-16T10:53:25.242Z,99596.38
2022-11-16T10:56:15.416Z,99579.25
2022-11-16T10:59:11.443Z,99581.34
2022-11-16T11:01:41.845Z,99589.28
2022-11-16T11:04:23.944Z,99585.97
2022-11-16T11:06:55.665Z,99577.81
2022-11-16T11:09:32.616Z,99584.06
2022-11-16T11:12:34.163Z,99584.69
2022-11-16T11:15:13.488Z,99580.72
2022-11-16T11:17:42.009Z,99579.25
2022-11-16T11:20:28.988Z,99585.53
2022-11-16T11:22:56.872Z,99579.25
2022-11-16T11:25:30.151Z,99593.25
2022-11-16T11:28:27.792Z,99594.72
2022-11-16T11:31:13.726Z,99594.91
2022-11-16T11:33:48.655Z,99582.59
2022-11-16T11:36:20.503Z,99585.53
2022-11-16T11:39:04.988Z,99598.06
2022-11-16T11:41:41.098Z,99590.97
2022-11-16T11:44:13.496Z,99579.47
2022-11-16T11:47:35.057Z,99587.41
2022-11-16T11:49:36.112Z,99574.28
2022-11-16T11:52:14.244Z,99595.56
2022-11-16T11:54:46.878Z,99587.22
2022-11-16T11:57:20.656Z,99593.06
2022-11-16T11:59:48.618Z,99590.53
2022-11-16T12:02:25.315Z,99590.69
2022-11-16T12:04:53.021Z,99594.22
2022-11-16T12:07:47.131Z,99590.44
2022-11-16T12:10:19.519Z,99601.41
2022-11-16T12:12:54.222Z,99607.00
2022-11-16T12:15:44.530Z,99615.66
2022-11-16T12:18:54.454Z,99607.19
2022-11-16T12:21:43.993Z,99604.06
2022-11-16T12:24:35.106Z,99601.28
2022-11-16T12:27:13.339Z,99603.75
2022-11-16T12:30:15.039Z,99611.56
2022-11-16T12:32:56.271Z,99623.97
2022-11-16T12:35:41.640Z,99618.25
2022-11-16T12:38:30.055Z,99604.47
2022-11-16T12:41:24.169Z,99632.50
2022-11-16T12:44:02.065Z,99618.88
2022-11-16T12:46:34.260Z,99627.09
2022-11-16T12:49:37.411Z,99622.06
2022-11-16T12:52:30.527Z,99641.66
2022-11-16T12:55:28.484Z,99632.06
2022-11-16T12:58:43.263Z,99632.84
2022-11-16T13:01:14.693Z,99611.00
2022-11-16T13:03:47.579Z,99616.16
2022-11-16T13:06:20.239Z,99611.53
2022-11-16T13:09:06.783Z,99620.47
2022-11-16T13:11:39.234Z,99641.38
2022-11-16T13:14:13.290Z,99636.97
2022-11-16T13:16:39.830Z,99638.44
2022-11-16T13:19:29.651Z,99649.34
2022-11-16T13:22:05.732Z,99643.09
2022-11-16T13:24:54.719Z,99644.16
2022-11-16T13:27:46.709Z,99631.56
2022-11-16T13:30:23.496Z,99645.06
2022-11-16T13:33:27.230Z,99644.19
2022-11-16T13:35:54.090Z,99642.84
2022-11-16T13:38:49.746Z,99642.13
2022-11-16T13:41:37.374Z,99634.41
2022-11-16T13:44:12.364Z,99631.41
2022-11-16T13:47:20.005Z,99672.28
2022-11-16T13:49:57.794Z,99636.06
2022-11-16T13:53:36.296Z,99644.53
2022-11-16T13:55:34.922Z,99647.72
2022-11-16T13:58:04.608Z,99655.72
2022-11-16T14:00:34.565Z,99652.28
2022-11-16T14:03:16.857Z,99657.03
2022-11-16T14:05:47.195Z,99638.97
2022-11-16T14:08:19.843Z,99653.69
2022-11-16T14:10:49.085Z,99648.72
2022-11-16T14:13:40.738Z,99637.94
2022-11-16T14:16:22.787Z,99642.22
2022-11-16T14:18:52.154Z,99649.78
2022-11-16T14:21:36.957Z,99642.03
2022-11-16T14:24:29.136Z,99652.00
2022-11-16T14:27:10.329Z,99652.84
2022-11-16T14:29:48.966Z,99644.38
2022-11-16T14:32:26.916Z,99659.91
2022-11-16T14:34:55.771Z,99637.47
2022-11-16T14:37:22.265Z,99642.50
2022-11-16T14:39:58.951Z,99672.00
2022-11-16T14:42:38.044Z,99639.63
2022-11-16T14:45:12.951Z,99644.25
2022-11-16T14:47:39.812Z,99642.69
2022-11-16T14:50:27.485Z,99660.38
2022-11-16T14:53:00.257Z,99640.91
2022-11-16T14:55:27.723Z,99643.63
2022-11-16T14:58:23.165Z,99649.78
2022-11-16T15:00:56.040Z,99641.47
2022-11-16T15:03:47.071Z,99644.47
2022-11-16T15:06:16.258Z,99646.69
2022-11-16T15:08:51.632Z,99646.31
2022-11-16T15:11:48.821Z,99641.13
2022-11-16T15:14:21.459Z,99640.63
2022-11-16T15:16:56.305Z,99644.38
2022-11-16T15:19:24.439Z,99636.28
2022-11-16T15:21:53.708Z,99643.72
2022-11-16T15:24:32.079Z,99648.47
2022-11-16T15:27:30.558Z,99634.34
2022-11-16T15:29:57.178Z,99630.22
2022-11-16T15:32:26.865Z,99632.44
2022-11-16T15:34:54.513Z,99635.16
2022-11-16T15:37:31.030Z,99628.47
2022-11-16T15:40:00.067Z,99626.69
2022-11-16T15:42:28.332Z,99625.66
2022-11-16T15:44:55.974Z,99640.47
2022-11-16T15:47:23.686Z,99634.50
2022-11-16T15:49:53.090Z,99636.81
2022-11-16T15:52:50.432Z,99628.25
2022-11-16T15:55:31.941Z,99629.75
2022-11-16T15:58:26.760Z,99639.72
2022-11-16T16:00:53.533Z,99641.94
2022-11-16T16:03:26.494Z,99645.94
2022-11-16T16:05:54.769Z,99656.56
2022-11-16T16:08:37.613Z,99644.25
2022-11-16T16:11:10.045Z,99635.81
2022-11-16T16:13:42.464Z,99634.41
2022-11-16T16:16:29.015Z,99629.84
2022-11-16T16:19:06.540Z,99638.50
2022-11-16T16:21:47.333Z,99635.41
2022-11-16T16:24:42.087Z,99653.66
2022-11-16T16:27:28.005Z,99641.09
2022-11-16T16:29:57.333Z,99637.09
2022-11-16T16:32:26.886Z,99642.13
2022-11-16T16:34:58.782Z,99636.72
2022-11-16T16:37:30.260Z,99667.06
2022-11-16T16:39:57.584Z,99663.97
2022-11-16T16:42:24.440Z,99647.41
2022-11-16T16:44:51.014Z,99654.50
2022-11-16T16:47:20.762Z,99657.66
2022-11-16T16:49:49.447Z,99650.38
2022-11-16T16:52:16.830Z,99664.53
2022-11-16T16:54:43.711Z,99658.84
2022-11-16T16:57:15.027Z,99664.69
2022-11-16T16:59:42.729Z,99658.50
2022-11-16T17:02:11.667Z,99650.38
2022-11-16T17:04:38.241Z,99651.19
2022-11-16T17:07:05.422Z,99667.88
2022-11-16T17:09:32.036Z,99647.13
2022-11-16T17:11:58.608Z,99664.13
2022-11-16T17:14:25.289Z,99654.91
2022-11-16T17:16:51.981Z,99670.09
2022-11-16T17:19:19.098Z,99675.03
2022-11-16T17:21:45.891Z,99660.88
2022-11-16T17:24:12.835Z,99662.00
2022-11-16T17:26:40.766Z,99664.41
2022-11-16T17:29:07.639Z,99659.66
2022-11-16T17:31:34.335Z,99660.94
2022-11-16T17:34:01.300Z,99671.03
2022-11-16T17:36:27.806Z,99666.75
2022-11-16T17:38:54.290Z,99659.66
2022-11-16T17:41:24.202Z,99663.66
2022-11-16T17:43:53.030Z,99663.66
2022-11-16T17:46:22.131Z,99653.31
2022-11-16T17:48:50.770Z,99658.25
2022-11-16T17:51:23.091Z,99663.94
2022-11-16T17:53:49.970Z,99664.69
2022-11-16T17:56:22.483Z,99661.78
2022-11-16T17:58:52.323Z,99665.78
2022-11-16T18:01:19.340Z,99683.81
2022-11-16T18:03:45.925Z,99662.63
2022-11-16T18:06:15.190Z,99668.41
2022-11-16T18:08:43.879Z,99659.09
2022-11-16T18:11:11.913Z,99663.22
2022-11-16T18:13:38.866Z,99657.03
2022-11-16T18:16:06.761Z,99672.22
2022-11-16T18:18:34.302Z,99665.63
2022-11-16T18:21:01.457Z,99668.03
2022-11-16T18:23:28.851Z,99664.22
2022-11-16T18:25:56.257Z,99664.34
2022-11-16T18:28:23.313Z,99655.03
2022-11-16T18:30:52.901Z,99661.63
2022-11-16T18:33:19.680Z,99662.84
2022-11-16T18:35:46.298Z,99654.09
2022-11-16T18:38:13.216Z,99657.28
2022-11-16T18:40:42.567Z,99667.88
2022-11-16T18:43:15.552Z,99657.44
2022-11-16T18:45:42.077Z,99661.84
2022-11-16T18:48:10.374Z,99660.78
2022-11-16T18:50:37.096Z,99669.09
2022-11-16T18:53:03.608Z,99662.47
2022-11-16T18:55:30.192Z,99660.78
2022-11-16T18:57:57.720Z,99665.63
2022-11-16T19:00:24.298Z,99666.03
2022-11-16T19:02:51.561Z,99665.06
2022-11-16T19:05:18.307Z,99666.75
2022-11-16T19:07:44.826Z,99670.88
2022-11-16T19:10:12.496Z,99665.19
2022-11-16T19:12:39.342Z,99680.19
2022-11-16T19:15:06.416Z,99675.78
2022-11-16T19:20:32.021Z,99666.81
2022-11-16T19:23:03.340Z,99661.41
2022-11-16T19:25:29.837Z,99660.81
2022-11-16T19:27:56.372Z,99694.22
2022-11-16T19:30:23.135Z,99676.72
2022-11-16T19:32:55.494Z,99679.97
2022-11-16T19:35:24.798Z,99666.69
2022-11-16T19:37:51.497Z,99673.72
2022-11-16T19:40:23.703Z,99667.59
2022-11-16T19:42:52.878Z,99667.13
2022-11-16T19:45:19.450Z,99665.19
2022-11-16T19:47:46.024Z,99668.53
2022-11-16T19:50:12.586Z,99665.19
2022-11-16T19:52:39.195Z,99673.28
2022-11-16T19:55:05.946Z,99665.56
2022-11-16T19:57:32.671Z,99675.78
2022-11-16T19:59:59.364Z,99676.06
2022-11-16T20:02:25.938Z,99688.44
2022-11-16T20:04:53.470Z,99687.44
2022-11-16T20:07:20.331Z,99695.81
2022-11-16T20:09:52.074Z,99691.06
2022-11-16T20:12:20.272Z,99681.03
2022-11-16T20:14:46.813Z,99672.25
2022-11-16T20:17:13.399Z,99674.56
2022-11-16T20:19:40.104Z,99687.22
2022-11-16T20:22:06.682Z,99692.28
2022-11-16T20:24:33.194Z,99687.97
2022-11-16T20:27:00.778Z,99694.41
2022-11-16T20:29:27.598Z,99685.00
2022-11-16T20:31:54.130Z,99701.59
2022-11-16T20:34:22.182Z,99682.84
2022-11-16T20:36:51.016Z,99681.28
2022-11-16T20:39:20.341Z,99678.97
2022-11-16T20:41:48.147Z,99670.47
2022-11-16T20:44:26.679Z,99680.19
2022-11-16T20:46:53.307Z,99665.47
2022-11-16T20:49:20.109Z,99683.13
2022-11-16T20:51:50.553Z,99682.97
2022-11-16T20:54:17.123Z,99680.81
2022-11-16T20:56:44.570Z,99678.75
2022-11-16T20:59:11.230Z,99668.16
2022-11-16T21:01:37.842Z,99682.31
2022-11-16T21:04:05.936Z,99679.97
2022-11-16T21:06:33.457Z,99673.56
2022-11-16T21:09:00.515Z,99676.44
2022-11-16T21:11:30.085Z,99670.75
2022-11-16T21:14:15.234Z,99670.75
2022-11-16T21:16:41.814Z,99675.22
2022-11-16T21:19:08.427Z,99678.97
2022-11-16T21:21:35.043Z,99680.41
2022-11-16T21:24:01.800Z,99677.72
2022-11-16T21:26:30.181Z,99676.91
2022-11-16T21:28:58.055Z,99683.31
2022-11-16T21:31:26.970Z,99684.38
2022-11-16T21:33:54.416Z,99667.13
2022-11-16T21:36:23.451Z,99684.16
2022-11-16T21:38:50.515Z,99670.88
2022-11-16T21:41:18.460Z,99676.25
2022-11-16T21:43:45.087Z,99678.75
2022-11-16T21:46:16.545Z,99677.06
2022-11-16T21:48:43.090Z,99683.97
2022-11-16T21:51:12.292Z,99693.38
2022-11-16T21:53:39.664Z,99669.06
2022-11-16T21:56:08.215Z,99670.53
2022-11-16T21:58:34.709Z,99676.34
2022-11-16T22:01:02.441Z,99669.91
2022-11-16T22:03:30.733Z,99679.69
2022-11-16T22:06:21.312Z,99689.00
2022-11-16T22:08:48.405Z,99662.34
2022-11-16T22:11:16.426Z,99660.94
2022-11-16T22:13:44.037Z,99665.63
2022-11-16T22:16:15.321Z,99657.88
2022-11-16T22:18:42.041Z,99672.69
2022-11-16T22:21:08.947Z,99654.63
2022-11-16T22:23:36.822Z,99663.16
2022-11-16T22:26:07.619Z,99669.34
2022-11-16T22:28:34.815Z,99679.28
2022-11-16T22:31:15.087Z,99677.00
2022-11-16T22:33:42.196Z,99674.38
2022-11-16T22:36:13.367Z,99674.09
2022-11-16T22:38:39.938Z,99678.19
2022-11-16T22:41:06.763Z,99679.63
2022-11-16T22:43:35.940Z,99669.63
2022-11-16T22:46:05.456Z,99678.66
2022-11-16T22:48:36.745Z,99670.81
2022-11-16T22:51:06.965Z,99673.44
2022-11-16T22:53:34.621Z,99665.53
2022-11-16T22:56:08.977Z,99672.53
2022-11-16T22:58:37.179Z,99687.88
2022-11-16T23:01:04.950Z,99673.56
2022-11-16T23:03:31.721Z,99662.44
2022-11-16T23:05:58.814Z,99671.88
2022-11-16T23:08:26.292Z,99671.88
2022-11-16T23:11:27.333Z,99670.66
2022-11-16T23:14:13.268Z,99663.97
2022-11-16T23:16:41.016Z,99653.41
2022-11-16T23:19:28.137Z,99667.88
2022-11-16T23:22:14.837Z,99663.78
2022-11-16T23:25:00.534Z,99675.63
2022-11-16T23:27:40.645Z,99672.91
2022-11-16T23:30:12.479Z,99675.78
2022-11-16T23:32:40.202Z,99667.69
2022-11-16T23:35:07.511Z,99666.09
2022-11-16T23:37:34.686Z,99671.22
2022-11-16T23:40:01.189Z,99669.38
2022-11-16T23:42:47.947Z,99664.13
2022-11-16T23:45:14.719Z,99664.06
2022-11-16T23:47:41.600Z,99677.56
2022-11-16T23:50:08.490Z,99674.28
2022-11-16T23:52:34.979Z,99684.84
2022-11-16T23:55:01.479Z,99659.91
2022-11-16T23:57:28.024Z,99678.59
2022-11-16T23:59:54.527Z,99669.00
